createdAt,value
2022-09-12T00:00:52.764Z,3.97
2022-09-12T00:03:38.839Z,3.43
2022-09-12T00:06:30.244Z,3.63
2022-09-12T00:09:15.890Z,3.80
2022-09-12T00:12:01.403Z,3.97
2022-09-12T00:14:46.583Z,3.50
2022-09-12T00:17:34.856Z,4.40
2022-09-12T00:20:20.363Z,4.33
2022-09-12T00:23:05.598Z,4.50
2022-09-12T00:25:51.124Z,4.27
2022-09-12T00:28:38.752Z,4.37
2022-09-12T00:31:25.955Z,4.20
2022-09-12T00:34:11.838Z,3.83
2022-09-12T00:36:57.081Z,4.27
2022-09-12T00:39:42.248Z,3.50
2022-09-12T00:42:27.598Z,3.93
2022-09-12T00:45:27.233Z,4.23
2022-09-12T00:48:22.286Z,4.20
2022-09-12T00:51:08.486Z,4.17
2022-09-12T00:53:55.900Z,4.13
2022-09-12T00:56:45.303Z,4.17
2022-09-12T00:59:44.685Z,4.30
2022-09-12T01:02:29.970Z,5.83
2022-09-12T01:05:15.749Z,3.87
2022-09-12T01:08:03.803Z,4.20
2022-09-12T01:10:49.882Z,3.80
2022-09-12T01:13:35.782Z,4.10
2022-09-12T01:16:21.209Z,4.00
2022-09-12T01:19:25.246Z,3.70
2022-09-12T01:22:16.861Z,4.23
2022-09-12T01:25:20.958Z,5.17
2022-09-12T01:28:29.301Z,3.50
2022-09-12T01:31:34.992Z,3.97
2022-09-12T01:34:30.503Z,4.03
2022-09-12T01:37:26.054Z,4.40
2022-09-12T01:40:39.392Z,3.53
2022-09-12T01:43:50.218Z,4.18
2022-09-12T01:46:57.574Z,3.97
2022-09-12T01:49:57.734Z,4.47
2022-09-12T01:52:56.024Z,4.33
2022-09-12T01:55:51.382Z,4.33
2022-09-12T01:58:45.982Z,3.80
2022-09-12T02:01:34.067Z,4.90
2022-09-12T02:04:25.820Z,4.37
2022-09-12T02:07:22.783Z,4.00
2022-09-12T02:10:19.631Z,3.80
2022-09-12T02:13:32.466Z,4.77
2022-09-12T02:16:24.048Z,4.70
2022-09-12T02:19:19.650Z,4.50
2022-09-12T02:22:06.517Z,5.03
2022-09-12T02:24:56.450Z,4.40
2022-09-12T02:27:47.404Z,4.90
2022-09-12T02:30:43.271Z,5.00
2022-09-12T02:33:51.514Z,4.93
2022-09-12T02:36:50.136Z,5.30
2022-09-12T02:39:36.139Z,4.20
2022-09-12T02:42:22.547Z,4.97
2022-09-12T02:45:09.108Z,5.20
2022-09-12T02:48:05.281Z,4.40
2022-09-12T02:50:50.642Z,5.23
2022-09-12T02:53:38.026Z,4.97
2022-09-12T02:56:32.845Z,4.77
2022-09-12T02:59:20.984Z,5.83
2022-09-12T03:02:24.811Z,12.30
2022-09-12T03:08:13.385Z,30.60
2022-09-12T03:11:33.198Z,27.45
2022-09-12T03:14:46.742Z,26.07
2022-09-12T03:18:03.932Z,28.85
2022-09-12T03:21:10.558Z,29.73
2022-09-12T03:24:08.129Z,26.77
2022-09-12T03:27:00.957Z,25.27
2022-09-12T03:29:48.216Z,25.42
2022-09-12T03:32:40.764Z,24.30
2022-09-12T03:35:26.062Z,23.23
2022-09-12T03:38:11.507Z,24.10
2022-09-12T03:40:56.704Z,26.07
2022-09-12T03:43:42.148Z,28.50
2022-09-12T03:46:27.411Z,24.73
2022-09-12T03:49:13.036Z,26.60
2022-09-12T03:51:58.660Z,27.27
2022-09-12T03:54:44.622Z,21.23
2022-09-12T03:57:29.898Z,19.43
2022-09-12T04:00:19.521Z,21.63
2022-09-12T04:03:05.330Z,19.30
2022-09-12T04:05:50.575Z,20.50
2022-09-12T04:08:37.498Z,21.20
2022-09-12T04:11:23.742Z,21.80
2022-09-12T04:14:08.994Z,15.90
2022-09-12T04:16:54.166Z,20.67
2022-09-12T04:19:40.139Z,18.63
2022-09-12T04:22:25.979Z,19.30
2022-09-12T04:25:11.728Z,21.87
2022-09-12T04:27:57.119Z,17.57
2022-09-12T04:30:42.377Z,16.17
2022-09-12T04:33:27.510Z,13.47
2022-09-12T04:36:16.671Z,14.13
2022-09-12T04:39:02.089Z,15.63
2022-09-12T04:41:47.578Z,14.00
2022-09-12T04:44:32.686Z,14.80
2022-09-12T04:47:18.910Z,16.80
2022-09-12T04:50:05.411Z,11.93
2022-09-12T04:52:51.900Z,13.20
2022-09-12T04:55:37.317Z,13.93
2022-09-12T04:58:22.671Z,15.10
2022-09-12T05:01:09.284Z,15.30
2022-09-12T05:03:55.010Z,19.80
2022-09-12T05:06:41.633Z,21.50
2022-09-12T05:09:27.121Z,23.70
2022-09-12T05:12:13.477Z,26.93
2022-09-12T05:14:58.937Z,21.00
2022-09-12T05:17:44.428Z,28.57
2022-09-12T05:20:29.650Z,29.40
2022-09-12T05:23:16.155Z,30.87
2022-09-12T05:26:02.656Z,23.40
2022-09-12T05:28:49.455Z,25.70
2022-09-12T05:31:35.435Z,24.17
2022-09-12T05:34:21.604Z,28.33
2022-09-12T05:37:06.839Z,27.60
2022-09-12T05:39:52.867Z,26.00
2022-09-12T05:42:38.294Z,28.40
2022-09-12T05:45:23.658Z,25.97
2022-09-12T05:48:09.143Z,30.10
2022-09-12T05:51:01.481Z,25.70
2022-09-12T05:53:49.801Z,21.02
2022-09-12T05:56:39.551Z,28.27
2022-09-12T05:59:25.288Z,24.67
2022-09-12T06:02:11.262Z,23.53
2022-09-12T06:04:56.745Z,18.83
2022-09-12T06:07:42.022Z,22.60
2022-09-12T06:10:27.162Z,19.97
2022-09-12T06:13:12.441Z,21.33
2022-09-12T06:16:03.947Z,22.77
2022-09-12T06:18:52.364Z,20.37
2022-09-12T06:21:38.844Z,18.73
2022-09-12T06:24:24.146Z,20.17
2022-09-12T06:27:09.367Z,20.27
2022-09-12T06:29:54.636Z,19.10
2022-09-12T06:32:40.097Z,22.37
2022-09-12T06:35:25.403Z,20.97
2022-09-12T06:38:11.313Z,18.90
2022-09-12T06:40:57.375Z,18.33
2022-09-12T06:43:43.107Z,20.17
2022-09-12T06:46:28.867Z,17.80
2022-09-12T06:49:14.957Z,18.00
2022-09-12T06:52:01.089Z,21.87
2022-09-12T06:54:47.515Z,18.10
2022-09-12T06:57:36.353Z,17.73
2022-09-12T07:00:22.027Z,19.87
2022-09-12T07:03:08.002Z,16.23
2022-09-12T07:05:53.221Z,17.87
2022-09-12T07:08:39.361Z,20.50
2022-09-12T07:11:27.683Z,13.90
2022-09-12T07:14:14.776Z,17.53
2022-09-12T07:17:00.106Z,18.47
2022-09-12T07:19:45.464Z,15.63
2022-09-12T07:22:30.713Z,15.53
2022-09-12T07:25:16.103Z,17.23
2022-09-12T07:28:02.433Z,13.67
2022-09-12T07:30:47.779Z,17.00
2022-09-12T07:33:33.062Z,16.50
2022-09-12T07:36:20.512Z,17.37
2022-09-12T07:39:06.039Z,15.03
2022-09-12T07:41:51.469Z,16.77
2022-09-12T07:44:36.695Z,14.40
2022-09-12T07:47:22.139Z,14.70
2022-09-12T07:50:07.531Z,14.83
2022-09-12T07:52:55.849Z,14.33
2022-09-12T07:55:41.138Z,16.37
2022-09-12T07:58:26.876Z,12.63
2022-09-12T08:01:14.934Z,15.40
2022-09-12T08:04:00.686Z,13.23
2022-09-12T08:06:45.957Z,15.37
2022-09-12T08:09:31.297Z,13.30
2022-09-12T08:12:17.767Z,12.50
2022-09-12T08:15:03.435Z,16.57
2022-09-12T08:17:48.643Z,12.13
2022-09-12T08:20:33.806Z,11.87
2022-09-12T08:23:21.272Z,15.20
2022-09-12T08:26:06.824Z,14.43
2022-09-12T08:28:53.411Z,13.27
2022-09-12T08:31:38.782Z,13.83
2022-09-12T08:34:24.885Z,16.63
2022-09-12T08:37:10.468Z,12.87
2022-09-12T08:39:56.874Z,13.13
2022-09-12T08:43:32.114Z,12.20
2022-09-12T08:46:23.462Z,13.30
2022-09-12T08:49:15.348Z,11.00
2022-09-12T08:52:10.859Z,10.43
2022-09-12T08:54:56.732Z,11.87
2022-09-12T08:57:42.310Z,10.33
2022-09-12T09:00:50.850Z,11.77
2022-09-12T09:03:55.277Z,12.00
2022-09-12T09:06:59.278Z,10.87
2022-09-12T09:10:03.130Z,9.40
2022-09-12T09:13:12.005Z,9.88
2022-09-12T09:16:15.495Z,9.43
2022-09-12T09:19:27.545Z,10.35
2022-09-12T09:22:53.520Z,10.57
2022-09-12T09:25:50.821Z,10.87
2022-09-12T09:28:42.696Z,10.00
2022-09-12T09:31:37.399Z,9.67
2022-09-12T09:34:26.177Z,9.00
2022-09-12T09:37:20.846Z,11.33
2022-09-12T09:40:27.462Z,8.77
2022-09-12T09:43:24.463Z,7.67
2022-09-12T09:46:11.875Z,9.73
2022-09-12T09:49:03.317Z,10.87
2022-09-12T09:51:48.950Z,9.00
2022-09-12T09:54:57.402Z,10.07
2022-09-12T09:57:45.119Z,8.93
2022-09-12T10:00:33.218Z,8.23
2022-09-12T10:03:37.956Z,10.37
2022-09-12T10:06:25.700Z,8.70
2022-09-12T10:09:23.172Z,10.03
2022-09-12T10:12:34.711Z,9.33
2022-09-12T10:15:29.584Z,9.10
2022-09-12T10:18:33.667Z,8.13
2022-09-12T10:21:19.049Z,9.60
2022-09-12T10:24:21.222Z,7.30
2022-09-12T10:27:18.901Z,7.43
2022-09-12T10:30:18.036Z,9.27
2022-09-12T10:33:11.653Z,9.37
2022-09-12T10:38:53.865Z,6.83
2022-09-12T10:41:40.977Z,6.77
2022-09-12T10:44:30.707Z,8.57
2022-09-12T10:47:21.894Z,7.23
2022-09-12T10:50:23.213Z,6.00
2022-09-12T10:53:25.264Z,7.60
2022-09-12T10:56:14.280Z,6.70
2022-09-12T10:59:08.118Z,7.57
2022-09-12T11:02:30.256Z,8.17
2022-09-12T11:05:37.344Z,6.33
2022-09-12T11:08:51.010Z,7.60
2022-09-12T11:15:03.038Z,6.53
2022-09-12T11:18:14.196Z,6.90
2022-09-12T11:21:09.769Z,6.43
2022-09-12T11:24:28.329Z,6.70
2022-09-12T11:27:37.777Z,5.97
2022-09-12T11:30:23.312Z,5.50
2022-09-12T11:33:20.809Z,6.80
2022-09-12T11:36:23.709Z,5.67
2022-09-12T11:39:17.328Z,5.07
2022-09-12T11:42:07.829Z,6.00
2022-09-12T11:45:17.480Z,5.30
2022-09-12T11:48:08.343Z,5.50
2022-09-12T11:50:54.001Z,5.07
2022-09-12T11:53:42.710Z,4.50
2022-09-12T11:56:28.152Z,5.53
2022-09-12T11:59:47.856Z,5.70
2022-09-12T12:02:57.760Z,4.83
2022-09-12T12:05:52.215Z,5.33
2022-09-12T12:08:43.442Z,4.70
2022-09-12T12:11:51.333Z,4.77
2022-09-12T12:14:43.270Z,4.50
2022-09-12T12:17:29.762Z,4.20
2022-09-12T12:20:20.509Z,5.10
2022-09-12T12:23:05.998Z,4.67
2022-09-12T12:25:54.424Z,4.20
2022-09-12T12:28:40.135Z,4.17
2022-09-12T12:31:25.447Z,4.93
2022-09-12T12:34:26.410Z,4.73
2022-09-12T12:37:20.994Z,4.10
2022-09-12T12:40:22.355Z,4.30
2022-09-12T12:43:32.198Z,4.60
2022-09-12T12:46:20.012Z,4.30
2022-09-12T12:49:11.071Z,3.50
2022-09-12T12:52:03.769Z,4.60
2022-09-12T12:54:52.882Z,4.50
2022-09-12T12:57:49.623Z,3.50
2022-09-12T13:00:40.342Z,4.93
2022-09-12T13:03:34.862Z,4.10
2022-09-12T13:06:37.160Z,6.27
2022-09-12T13:09:39.542Z,5.03
2022-09-12T13:12:29.682Z,5.78
2022-09-12T13:15:36.655Z,6.83
2022-09-12T13:18:45.563Z,5.60
2022-09-12T13:21:31.125Z,6.73
2022-09-12T13:24:17.238Z,7.27
2022-09-12T13:27:03.077Z,8.00
2022-09-12T13:29:48.638Z,8.17
2022-09-12T13:32:34.338Z,5.97
2022-09-12T13:35:34.529Z,6.27
2022-09-12T13:38:26.306Z,5.87
2022-09-12T13:41:56.728Z,7.87
2022-09-12T13:44:47.831Z,3.53
2022-09-12T13:47:48.540Z,5.63
2022-09-12T13:50:42.531Z,5.10
2022-09-12T13:53:35.270Z,4.60
2022-09-12T13:56:21.381Z,6.57
2022-09-12T13:59:13.588Z,9.10
2022-09-12T14:02:03.127Z,9.73
2022-09-12T14:05:09.254Z,6.70
2022-09-12T14:07:58.514Z,9.00
2022-09-12T14:10:47.745Z,8.90
2022-09-12T14:13:33.176Z,8.93
2022-09-12T14:16:21.307Z,6.87
2022-09-12T14:19:08.819Z,9.50
2022-09-12T14:21:55.238Z,6.40
2022-09-12T14:24:40.821Z,10.17
2022-09-12T14:27:31.760Z,7.33
2022-09-12T14:30:32.539Z,8.67
2022-09-12T14:33:21.007Z,9.63
2022-09-12T14:36:18.369Z,9.53
2022-09-12T14:39:07.469Z,7.87
2022-09-12T14:42:11.624Z,8.60
2022-09-12T14:45:01.345Z,6.83
2022-09-12T14:47:50.536Z,6.13
2022-09-12T14:50:36.283Z,5.33
2022-09-12T14:53:26.594Z,6.73
2022-09-12T14:56:13.277Z,8.70
2022-09-12T14:59:29.331Z,4.63
2022-09-12T15:02:20.789Z,5.60
2022-09-12T15:05:09.815Z,7.13
2022-09-12T15:07:58.229Z,10.63
2022-09-12T15:10:43.814Z,6.37
2022-09-12T15:13:30.242Z,7.70
2022-09-12T15:16:16.138Z,7.50
2022-09-12T15:19:01.347Z,8.07
2022-09-12T15:21:46.850Z,8.37
2022-09-12T15:24:31.965Z,10.57
2022-09-12T15:27:17.377Z,16.70
2022-09-12T15:30:02.563Z,45.37
2022-09-12T15:32:48.257Z,58.13
2022-09-12T15:35:33.839Z,64.93
2022-09-12T15:38:23.144Z,78.53
2022-09-12T15:41:15.571Z,81.00
2022-09-12T15:44:01.273Z,81.67
2022-09-12T15:46:46.996Z,78.13
2022-09-12T15:49:32.509Z,71.40
2022-09-12T15:52:17.896Z,74.13
2022-09-12T15:55:04.958Z,74.40
2022-09-12T15:57:51.096Z,71.67
2022-09-12T16:00:36.823Z,68.07
2022-09-12T16:03:24.619Z,63.23
2022-09-12T16:06:11.104Z,60.33
2022-09-12T16:08:56.801Z,64.93
2022-09-12T16:11:42.293Z,58.83
2022-09-12T16:14:27.465Z,55.73
2022-09-12T16:17:12.784Z,54.97
2022-09-12T16:19:58.003Z,48.50
2022-09-12T16:22:43.382Z,52.30
2022-09-12T16:25:28.474Z,43.80
2022-09-12T16:28:13.728Z,52.07
2022-09-12T16:31:01.598Z,47.63
2022-09-12T16:33:47.018Z,46.87
2022-09-12T16:36:32.774Z,45.57
2022-09-12T16:39:18.345Z,45.97
2022-09-12T16:42:04.170Z,43.70
2022-09-12T16:44:49.699Z,43.50
2022-09-12T16:47:34.825Z,42.07
2022-09-12T16:50:20.192Z,41.63
2022-09-12T16:53:05.734Z,43.00
2022-09-12T16:55:51.402Z,43.67
2022-09-12T16:58:41.924Z,38.43
2022-09-12T17:01:28.077Z,41.90
2022-09-12T17:04:13.403Z,36.53
2022-09-12T17:06:59.699Z,33.27
2022-09-12T17:09:48.019Z,32.33
2022-09-12T17:12:34.067Z,28.07
2022-09-12T17:15:19.729Z,30.57
2022-09-12T17:18:04.864Z,25.10
2022-09-12T17:20:50.852Z,25.17
2022-09-12T17:23:36.989Z,25.63
2022-09-12T17:26:22.628Z,24.47
2022-09-12T17:29:08.413Z,22.43
2022-09-12T17:31:55.032Z,19.30
2022-09-12T17:34:40.621Z,19.17
2022-09-12T17:37:26.175Z,20.43
2022-09-12T17:40:12.239Z,21.77
2022-09-12T17:42:58.127Z,20.23
2022-09-12T17:45:43.334Z,15.73
2022-09-12T17:48:28.734Z,14.63
2022-09-12T17:51:15.192Z,16.97
2022-09-12T17:54:08.264Z,17.37
2022-09-12T17:59:41.813Z,16.80
2022-09-12T18:02:31.294Z,18.83
2022-09-12T18:05:18.355Z,18.50
2022-09-12T18:08:04.091Z,19.33
2022-09-12T18:10:51.123Z,18.30
2022-09-12T18:13:36.755Z,20.60
2022-09-12T18:16:22.640Z,19.33
2022-09-12T18:19:08.941Z,18.37
2022-09-12T18:21:56.017Z,18.27
2022-09-12T18:24:41.642Z,17.53
2022-09-12T18:27:27.144Z,15.37
2022-09-12T18:30:21.794Z,18.63
2022-09-12T18:33:08.298Z,17.90
2022-09-12T18:35:54.140Z,17.73
2022-09-12T18:38:40.121Z,16.10
2022-09-12T18:41:26.340Z,16.20
2022-09-12T18:44:12.819Z,16.83
2022-09-12T18:46:58.568Z,15.80
2022-09-12T18:49:43.931Z,15.60
2022-09-12T18:52:29.426Z,16.17
2022-09-12T18:55:14.757Z,16.83
2022-09-12T18:58:00.714Z,17.10
2022-09-12T19:00:48.459Z,14.80
2022-09-12T19:03:35.832Z,16.50
2022-09-12T19:06:24.602Z,15.13
2022-09-12T19:09:11.654Z,17.80
2022-09-12T19:11:57.139Z,13.90
2022-09-12T19:14:42.463Z,13.70
2022-09-12T19:17:31.232Z,13.83
2022-09-12T19:20:16.733Z,13.33
2022-09-12T19:23:02.750Z,13.13
2022-09-12T19:25:59.350Z,18.20
2022-09-12T19:28:45.511Z,15.17
2022-09-12T19:31:32.095Z,15.47
2022-09-12T19:34:17.298Z,12.33
2022-09-12T19:37:02.696Z,14.13
2022-09-12T19:39:47.824Z,12.40
2022-09-12T19:42:34.276Z,11.47
2022-09-12T19:45:19.979Z,13.20
2022-09-12T19:48:05.284Z,12.23
2022-09-12T19:50:50.769Z,12.70
2022-09-12T19:53:38.214Z,11.33
2022-09-12T19:56:23.645Z,10.70
2022-09-12T19:59:09.382Z,11.90
2022-09-12T20:01:54.722Z,11.00
2022-09-12T20:04:39.842Z,11.20
2022-09-12T20:07:25.091Z,11.93
2022-09-12T20:10:10.455Z,12.10
2022-09-12T20:12:55.781Z,10.67
2022-09-12T20:15:41.297Z,12.43
2022-09-12T20:18:26.495Z,10.90
2022-09-12T20:21:17.510Z,9.93
2022-09-12T20:24:14.555Z,10.20
2022-09-12T20:27:00.379Z,9.60
2022-09-12T20:29:46.354Z,10.27
2022-09-12T20:32:31.801Z,12.23
2022-09-12T20:35:17.506Z,10.33
2022-09-12T20:38:02.769Z,8.83
2022-09-12T20:40:49.010Z,9.40
2022-09-12T20:43:34.401Z,9.13
2022-09-12T20:46:22.269Z,9.47
2022-09-12T20:49:10.894Z,9.17
2022-09-12T20:51:56.317Z,9.07
2022-09-12T20:54:41.516Z,9.43
2022-09-12T20:57:28.749Z,10.53
2022-09-12T21:00:14.108Z,8.50
2022-09-12T21:02:59.610Z,9.40
2022-09-12T21:05:46.085Z,8.80
2022-09-12T21:08:32.882Z,8.60
2022-09-12T21:11:19.739Z,8.50
2022-09-12T21:14:05.221Z,9.57
2022-09-12T21:16:50.383Z,8.20
2022-09-12T21:19:36.248Z,9.47
2022-09-12T21:22:21.534Z,10.20
2022-09-12T21:25:07.477Z,7.83
2022-09-12T21:27:52.650Z,8.40
2022-09-12T21:30:38.900Z,8.33
2022-09-12T21:33:24.930Z,7.47
2022-09-12T21:36:10.470Z,8.30
2022-09-12T21:38:58.325Z,7.67
2022-09-12T21:41:43.511Z,8.50
2022-09-12T21:44:28.643Z,7.40
2022-09-12T21:47:13.937Z,7.33
2022-09-12T21:49:59.344Z,7.50
2022-09-12T21:52:44.859Z,7.03
2022-09-12T21:55:30.026Z,7.13
2022-09-12T21:58:15.242Z,7.00
2022-09-12T22:01:01.500Z,9.50
2022-09-12T22:03:46.881Z,7.53
2022-09-12T22:06:32.144Z,8.63
2022-09-12T22:09:17.322Z,8.07
2022-09-12T22:12:02.898Z,7.07
2022-09-12T22:14:48.609Z,7.23
2022-09-12T22:17:33.742Z,7.53
2022-09-12T22:20:19.029Z,7.30
2022-09-12T22:23:25.025Z,7.17
2022-09-12T22:26:10.834Z,6.97
2022-09-12T22:28:56.156Z,6.17
2022-09-12T22:31:41.634Z,7.73
2022-09-12T22:34:28.759Z,7.43
2022-09-12T22:37:14.191Z,6.60
2022-09-12T22:40:00.147Z,6.33
2022-09-12T22:42:45.612Z,6.87
2022-09-12T22:45:30.799Z,6.10
2022-09-12T22:48:17.187Z,6.37
2022-09-12T22:51:02.567Z,6.03
2022-09-12T22:53:47.782Z,7.07
2022-09-12T22:56:33.843Z,6.10
2022-09-12T22:59:19.489Z,6.23
2022-09-12T23:02:05.319Z,5.87
2022-09-12T23:04:52.155Z,5.63
2022-09-12T23:07:37.456Z,6.80
2022-09-12T23:10:22.808Z,5.73
2022-09-12T23:13:08.167Z,6.30
2022-09-12T23:16:05.480Z,6.43
2022-09-12T23:18:51.252Z,5.77
2022-09-12T23:21:36.969Z,5.30
2022-09-12T23:24:22.446Z,5.40
2022-09-12T23:27:07.764Z,4.93
2022-09-12T23:29:53.891Z,6.10
2022-09-12T23:32:39.589Z,6.07
2022-09-12T23:35:24.685Z,5.13
2022-09-12T23:38:14.034Z,5.63
2022-09-12T23:41:01.553Z,5.13
2022-09-12T23:43:47.114Z,5.87
2022-09-12T23:46:32.505Z,4.53
2022-09-12T23:49:17.753Z,5.60
2022-09-12T23:52:03.046Z,5.93
2022-09-12T23:54:48.291Z,5.93
2022-09-12T23:57:33.362Z,5.63
